EDT,Max TemperatureF,Mean TemperatureF,Min TemperatureF,Max Dew PointF,MeanDew PointF,Min DewpointF,Max Humidity, Mean Humidity, Min Humidity, Max Sea Level PressureIn, Mean Sea Level PressureIn, Min Sea Level PressureIn, Max VisibilityMiles, Mean VisibilityMiles, Min VisibilityMiles, Max Wind SpeedMPH, Mean Wind SpeedMPH, Max Gust SpeedMPH,PrecipitationIn, CloudCover, Events, WindDirDegrees
2012-9-1,89,78,68,72,69,64,100,82,46,30.24,30.17,30.10,10.0,7.0,0.2,9,2,,0.00,4,,214
2012-9-2,86,78,69,70,68,66,100,83,55,30.12,30.03,29.94,10.0,8.0,0.2,17,2,39,0.00,5,,91
2012-9-3,73,71,69,70,67,63,100,87,73,30.00,29.97,29.94,10.0,7.3,0.2,7,2,,0.00,7,,82
2012-9-4,82,76,69,72,69,68,100,82,62,29.97,29.95,29.91,10.0,7.4,0.5,7,1,,0.00,7,,80
2012-9-5,86,78,69,72,69,66,100,82,51,29.98,29.93,29.88,10.0,7.3,0.2,13,2,30,0.00,6,,285
2012-9-6,80,74,68,68,67,64,100,84,58,30.05,30.00,29.94,10.0,7.6,0.5,6,1,,0.00,7,,280
2012-9-7,87,76,64,68,64,59,100,77,38,30.04,29.97,29.85,10.0,6.4,0.2,8,1,,0.00,4,,55
2012-9-8,75,65,55,64,61,54,100,85,69,29.99,29.87,29.77,10.0,8.3,0.2,9,2,30,0.00,6,,298
2012-9-9,75,64,53,55,53,46,100,77,36,30.09,30.02,29.96,10.0,7.2,0.2,8,1,,0.00,5,,277
2012-9-10,75,64,53,59,53,48,100,79,43,30.21,30.16,30.09,10.0,6.0,0.2,8,1,,0.00,5,,29
2012-9-11,78,64,50,55,52,50,100,80,39,30.31,30.26,30.21,10.0,5.9,0.2,8,2,,0.00,5,,89
2012-9-12,69,64,60,61,60,59,94,90,73,30.31,30.29,30.27,10.0,9.5,7.0,0,0,,0.00,2,,-1
2012-9-13,78,68,57,61,58,55,100,78,44,30.39,30.32,30.25,10.0,7.1,0.2,9,1,,0.00,4,,55
2012-9-14,80,70,59,61,59,55,100,82,42,30.31,30.27,30.23,10.0,6.7,0.5,7,1,,0.00,4,,297
2012-9-15,73,66,59,61,59,57,100,86,64,30.29,30.23,30.17,10.0,5.6,0.2,8,1,,0.00,4,,346
2012-9-16,77,68,60,63,60,59,94,83,54,30.18,30.13,30.08,10.0,6.9,2.0,7,0,,0.00,7,,349
2012-9-17,66,63,60,64,62,61,100,94,88,30.10,30.00,29.78,7.0,3.1,0.8,7,1,,0.00,8,,80
2012-9-18,66,60,51,63,59,52,100,92,77,30.02,29.82,29.70,10.0,6.6,0.2,16,4,25,0.00,7,,295
2012-9-19,68,57,46,52,47,43,100,77,40,30.17,30.12,30.02,10.0,6.3,0.2,7,1,,0.00,3,,24
2012-9-20,77,62,48,57,52,46,100,78,41,30.16,30.10,30.04,10.0,6.0,0.2,7,1,,0.00,5,,245
2012-9-21,78,66,53,61,55,52,100,75,39,30.11,30.04,29.95,10.0,5.7,0.2,8,3,,0.00,5,,179
2012-9-22,77,64,51,57,51,41,94,59,35,30.13,30.01,29.95,10.0,10.0,10.0,17,6,25,0.00,4,,277
2012-9-23,66,54,42,50,40,30,100,69,26,30.26,30.19,30.13,10.0,8.2,0.2,9,2,,0.00,2,,340
2012-9-24,68,54,39,46,40,32,100,73,28,30.30,30.23,30.15,10.0,6.8,0.2,8,1,,0.00,3,,137
2012-9-25,64,53,42,55,48,41,100,84,59,30.25,30.17,30.14,10.0,9.0,0.8,7,1,,0.00,3,,64
2012-9-26,80,66,51,61,55,52,100,76,39,30.24,30.18,30.14,10.0,8.2,0.8,9,2,,0.00,0,,154
2012-9-27,78,66,55,64,59,55,100,83,51,30.25,30.19,30.14,10.0,5.8,0.2,8,1,,0.00,6,,146
2012-9-28,71,66,60,64,62,61,100,90,73,30.16,30.11,30.06,10.0,5.3,0.2,6,1,,0.00,8,,269
2012-9-29,69,62,53,63,59,54,100,87,60,30.07,30.01,29.96,10.0,5.5,0.2,9,1,,0.00,7,,356
2012-9-30,69,60,51,55,52,48,100,81,46,30.01,29.93,29.87,10.0,7.3,0.2,7,2,,0.00,3,,53